createdAt,value
2022-10-20T00:02:36.966Z,100697.00
2022-10-20T00:05:40.495Z,100697.94
2022-10-20T00:08:46.024Z,100704.75
2022-10-20T00:11:50.690Z,100706.66
2022-10-20T00:14:53.590Z,100718.69
2022-10-20T00:17:57.857Z,100722.03
2022-10-20T00:21:00.742Z,100714.59
2022-10-20T00:24:04.369Z,100717.59
2022-10-20T00:27:07.623Z,100723.47
2022-10-20T00:30:11.152Z,100719.66
2022-10-20T00:33:16.370Z,100725.69
2022-10-20T00:36:20.905Z,100719.50
2022-10-20T00:39:23.663Z,100724.09
2022-10-20T00:42:27.118Z,100724.53
2022-10-20T00:45:30.473Z,100715.53
2022-10-20T00:48:34.911Z,100716.19
2022-10-20T00:51:37.674Z,100713.66
2022-10-20T00:54:40.803Z,100705.44
2022-10-20T00:57:47.190Z,100711.94
2022-10-20T01:00:52.589Z,100708.91
2022-10-20T01:03:56.134Z,100711.31
2022-10-20T01:06:59.447Z,100711.75
2022-10-20T01:10:04.139Z,100711.75
2022-10-20T01:13:36.501Z,100710.69
2022-10-20T01:16:58.274Z,100715.25
2022-10-20T01:20:10.541Z,100712.56
2022-10-20T01:23:33.501Z,100714.47
2022-10-20T01:26:55.548Z,100710.84
2022-10-20T01:30:07.021Z,100714.00
2022-10-20T01:33:25.435Z,100712.75
2022-10-20T01:36:36.340Z,100720.62
2022-10-20T01:39:45.607Z,100715.25
2022-10-20T01:42:51.100Z,100709.72
2022-10-20T01:45:54.803Z,100708.13
2022-10-20T01:48:57.899Z,100710.84
2022-10-20T01:52:01.492Z,100711.47
2022-10-20T01:55:12.133Z,100699.72
2022-10-20T01:58:40.256Z,100706.53
2022-10-20T02:02:02.656Z,100711.78
2022-10-20T02:05:27.910Z,100713.03
2022-10-20T02:08:44.833Z,100714.94
2022-10-20T02:12:16.850Z,100713.03
2022-10-20T02:15:24.232Z,100723.03
2022-10-20T02:18:32.239Z,100716.50
2022-10-20T02:21:35.066Z,100720.97
2022-10-20T02:24:40.176Z,100724.28
2022-10-20T02:27:46.991Z,100726.34
2022-10-20T02:30:50.159Z,100725.56
2022-10-20T02:33:54.953Z,100721.13
2022-10-20T02:36:59.127Z,100717.63
2022-10-20T02:40:02.081Z,100716.69
2022-10-20T02:43:05.321Z,100719.41
2022-10-20T02:46:08.277Z,100721.59
2022-10-20T02:49:11.355Z,100722.72
2022-10-20T02:52:14.652Z,100720.97
2022-10-20T02:58:26.369Z,100722.88
2022-10-20T03:01:29.934Z,100720.81
2022-10-20T03:04:32.758Z,100720.16
2022-10-20T03:07:37.558Z,100723.31
2022-10-20T03:10:41.749Z,100724.75
2022-10-20T03:13:44.796Z,100723.31
2022-10-20T03:16:47.718Z,100727.91
2022-10-20T03:19:50.807Z,100731.87
2022-10-20T03:22:53.675Z,100733.75
2022-10-20T03:26:07.522Z,100740.25
2022-10-20T03:29:10.349Z,100745.63
2022-10-20T03:32:13.880Z,100740.25
2022-10-20T03:35:16.673Z,100749.75
2022-10-20T03:38:20.038Z,100743.72
2022-10-20T03:41:22.991Z,100748.78
2022-10-20T03:44:26.558Z,100740.72
2022-10-20T03:47:29.449Z,100744.81
2022-10-20T03:50:32.706Z,100742.47
2022-10-20T03:53:36.812Z,100746.25
2022-10-20T03:56:40.755Z,100742.31
2022-10-20T03:59:43.566Z,100734.84
2022-10-20T04:02:47.512Z,100738.78
2022-10-20T04:05:50.598Z,100740.69
2022-10-20T04:08:53.892Z,100738.13
2022-10-20T04:11:57.085Z,100726.72
2022-10-20T04:14:59.873Z,100735.25
2022-10-20T04:18:02.924Z,100739.53
2022-10-20T04:21:05.861Z,100722.44
2022-10-20T04:24:08.971Z,100719.88
2022-10-20T04:27:11.907Z,100721.28
2022-10-20T04:30:15.230Z,100720.03
2022-10-20T04:33:18.037Z,100719.22
2022-10-20T04:36:22.626Z,100721.13
2022-10-20T04:39:25.614Z,100721.44
2022-10-20T04:42:29.475Z,100716.69
2022-10-20T04:45:32.263Z,100723.66
2022-10-20T04:48:35.725Z,100720.59
2022-10-20T04:51:38.499Z,100723.28
2022-10-20T04:54:41.641Z,100722.03
2022-10-20T04:57:44.601Z,100719.03
2022-10-20T05:00:47.750Z,100723.78
2022-10-20T05:03:50.752Z,100728.50
2022-10-20T05:06:53.750Z,100723.25
2022-10-20T05:09:56.289Z,100726.56
2022-10-20T05:12:59.139Z,100729.09
2022-10-20T05:16:01.855Z,100732.53
2022-10-20T05:19:07.002Z,100739.34
2022-10-20T05:22:09.679Z,100745.81
2022-10-20T05:25:35.982Z,100745.81
2022-10-20T05:28:40.080Z,100746.41
2022-10-20T05:31:44.733Z,100752.63
2022-10-20T05:34:47.865Z,100757.28
2022-10-20T05:37:51.150Z,100758.44
2022-10-20T05:40:53.942Z,100761.69
2022-10-20T05:43:59.949Z,100768.81
2022-10-20T05:47:02.849Z,100777.13
2022-10-20T05:50:07.524Z,100778.97
2022-10-20T05:53:10.333Z,100781.44
2022-10-20T05:56:19.395Z,100782.53
2022-10-20T05:59:23.269Z,100790.66
2022-10-20T06:02:26.401Z,100794.97
2022-10-20T06:05:30.733Z,100789.00
2022-10-20T06:08:34.237Z,100798.34
2022-10-20T06:11:39.563Z,100800.75
2022-10-20T06:14:42.595Z,100809.75
2022-10-20T06:17:47.124Z,100808.81
2022-10-20T06:20:59.705Z,100812.00
2022-10-20T06:24:05.775Z,100819.97
2022-10-20T06:27:09.673Z,100833.44
2022-10-20T06:30:12.755Z,100826.41
2022-10-20T06:33:17.047Z,100832.28
2022-10-20T06:36:23.703Z,100840.56
2022-10-20T06:39:26.662Z,100843.41
2022-10-20T06:42:29.813Z,100843.56
2022-10-20T06:45:33.083Z,100850.09
2022-10-20T06:48:36.320Z,100848.69
2022-10-20T06:51:39.293Z,100855.19
2022-10-20T06:54:42.475Z,100852.47
2022-10-20T06:57:45.331Z,100857.03
2022-10-20T07:00:48.716Z,100860.34
2022-10-20T07:03:54.028Z,100862.19
2022-10-20T07:06:57.215Z,100860.56
2022-10-20T07:09:59.959Z,100863.97
2022-10-20T07:13:03.781Z,100872.97
2022-10-20T07:16:08.315Z,100875.69
2022-10-20T07:19:11.616Z,100867.75
2022-10-20T07:22:14.355Z,100874.47
2022-10-20T07:25:17.338Z,100875.03
2022-10-20T07:28:21.896Z,100874.44
2022-10-20T07:31:27.821Z,100882.34
2022-10-20T07:34:33.855Z,100871.06
2022-10-20T07:37:37.216Z,100868.97
2022-10-20T07:40:40.327Z,100875.19
2022-10-20T07:43:44.113Z,100879.88
2022-10-20T07:46:49.178Z,100882.06
2022-10-20T07:49:52.054Z,100888.06
2022-10-20T07:52:54.675Z,100881.16
2022-10-20T07:55:57.687Z,100882.56
2022-10-20T07:59:01.431Z,100881.22
2022-10-20T08:02:04.754Z,100879.75
2022-10-20T08:05:08.885Z,100881.25
2022-10-20T08:08:11.722Z,100879.09
2022-10-20T08:11:15.331Z,100880.66
2022-10-20T08:14:18.381Z,100885.75
2022-10-20T08:20:41.782Z,100881.16
2022-10-20T08:23:46.572Z,100890.63
2022-10-20T08:26:49.911Z,100890.81
2022-10-20T08:30:00.286Z,100890.06
2022-10-20T08:33:15.180Z,100892.44
2022-10-20T08:36:18.275Z,100891.50
2022-10-20T08:39:21.035Z,100891.03
2022-10-20T08:42:24.373Z,100885.06
2022-10-20T08:45:29.406Z,100898.91
2022-10-20T08:48:35.041Z,100890.53
2022-10-20T08:51:38.753Z,100896.41
2022-10-20T08:54:48.609Z,100898.37
2022-10-20T08:57:51.362Z,100901.69
2022-10-20T09:00:58.219Z,100906.44
2022-10-20T09:04:14.492Z,100889.78
2022-10-20T09:07:25.277Z,100891.44
2022-10-20T09:10:37.832Z,100903.44
2022-10-20T09:13:40.898Z,100894.78
2022-10-20T09:16:59.854Z,100893.41
2022-10-20T09:20:04.987Z,100898.03
2022-10-20T09:23:35.625Z,100897.59
2022-10-20T09:30:20.160Z,100906.97
2022-10-20T09:33:30.044Z,100906.53
2022-10-20T09:36:35.407Z,100898.97
2022-10-20T09:39:51.359Z,100908.16
2022-10-20T09:43:03.277Z,100900.31
2022-10-20T09:46:08.236Z,100906.84
2022-10-20T09:49:22.943Z,100905.22
2022-10-20T09:52:30.671Z,100910.78
2022-10-20T09:55:35.962Z,100903.03
2022-10-20T09:58:39.573Z,100902.91
2022-10-20T10:02:22.462Z,100895.66
2022-10-20T10:05:33.305Z,100896.72
2022-10-20T10:08:45.577Z,100892.94
2022-10-20T10:12:06.581Z,100891.66
2022-10-20T10:15:27.947Z,100895.47
2022-10-20T10:18:31.366Z,100890.53
2022-10-20T10:21:49.070Z,100890.19
2022-10-20T10:24:55.157Z,100886.19
2022-10-20T10:28:00.664Z,100872.78
2022-10-20T10:31:18.706Z,100869.16
2022-10-20T10:34:21.376Z,100874.19
2022-10-20T10:37:24.425Z,100865.59
2022-10-20T10:40:35.626Z,100864.63
2022-10-20T10:43:48.847Z,100856.03
2022-10-20T10:47:01.640Z,100855.03
2022-10-20T10:50:35.844Z,100855.22
2022-10-20T10:53:53.990Z,100856.16
2022-10-20T10:57:03.412Z,100841.91
2022-10-20T11:00:36.867Z,100834.63
2022-10-20T11:03:49.353Z,100829.72
2022-10-20T11:07:21.579Z,100827.19
2022-10-20T11:10:37.200Z,100827.50
2022-10-20T11:13:58.843Z,100823.41
2022-10-20T11:17:08.781Z,100820.19
2022-10-20T11:20:38.935Z,100808.59
2022-10-20T11:24:00.431Z,100803.19
2022-10-20T11:27:11.837Z,100798.19
2022-10-20T11:30:19.515Z,100800.72
2022-10-20T11:33:24.421Z,100802.28
2022-10-20T11:36:32.205Z,100798.16
2022-10-20T11:40:19.667Z,100795.25
2022-10-20T11:43:27.746Z,100783.69
2022-10-20T11:46:53.235Z,100785.31
2022-10-20T11:49:56.440Z,100784.88
2022-10-20T11:53:34.477Z,100782.84
2022-10-20T11:57:02.776Z,100785.16
2022-10-20T12:00:25.729Z,100777.97
2022-10-20T12:04:03.132Z,100768.06
2022-10-20T12:07:18.908Z,100765.25
2022-10-20T12:10:43.012Z,100766.63
2022-10-20T12:14:00.646Z,100763.38
2022-10-20T12:17:22.559Z,100753.31
2022-10-20T12:20:25.363Z,100760.03
2022-10-20T12:23:45.373Z,100751.69
2022-10-20T12:27:10.017Z,100747.50
2022-10-20T12:30:55.691Z,100742.34
2022-10-20T12:34:02.081Z,100744.31
2022-10-20T12:37:09.088Z,100729.38
2022-10-20T12:40:11.750Z,100734.94
2022-10-20T12:43:34.969Z,100727.19
2022-10-20T12:46:43.249Z,100723.72
2022-10-20T12:49:54.921Z,100721.47
2022-10-20T12:53:29.819Z,100723.09
2022-10-20T12:56:36.808Z,100714.31
2022-10-20T12:59:41.309Z,100711.75
2022-10-20T13:02:46.759Z,100709.69
2022-10-20T13:05:49.566Z,100702.19
2022-10-20T13:09:10.453Z,100704.56
2022-10-20T13:12:29.069Z,100697.16
2022-10-20T13:15:55.087Z,100697.75
2022-10-20T13:18:58.038Z,100699.75
2022-10-20T13:22:38.125Z,100705.50
2022-10-20T13:25:45.901Z,100705.88
2022-10-20T13:28:51.019Z,100692.62
2022-10-20T13:32:20.351Z,100697.41
2022-10-20T13:35:30.293Z,100703.22
2022-10-20T13:38:46.407Z,100687.97
2022-10-20T13:42:27.299Z,100688.22
2022-10-20T13:45:51.848Z,100695.09
2022-10-20T13:48:57.891Z,100692.69
2022-10-20T13:52:04.794Z,100692.72
2022-10-20T13:55:12.966Z,100697.38
2022-10-20T13:58:21.688Z,100685.28
2022-10-20T14:01:25.065Z,100690.34
2022-10-20T14:04:37.156Z,100685.13
2022-10-20T14:07:42.358Z,100681.13
2022-10-20T14:10:57.840Z,100684.06
2022-10-20T14:14:01.719Z,100673.19
2022-10-20T14:17:06.992Z,100675.09
2022-10-20T14:20:19.266Z,100674.41
2022-10-20T14:23:23.718Z,100675.22
2022-10-20T14:26:26.937Z,100686.25
2022-10-20T14:29:33.064Z,100678.47
2022-10-20T14:32:40.115Z,100677.37
2022-10-20T14:35:49.366Z,100675.75
2022-10-20T14:38:55.581Z,100676.19
2022-10-20T14:42:00.567Z,100668.97
2022-10-20T14:45:04.412Z,100669.00
2022-10-20T14:48:14.735Z,100668.94
2022-10-20T14:51:35.365Z,100652.19
2022-10-20T14:54:42.525Z,100660.50
2022-10-20T14:57:46.981Z,100657.28
2022-10-20T15:00:51.480Z,100655.88
2022-10-20T15:07:18.201Z,100648.13
2022-10-20T15:10:23.481Z,100643.59
2022-10-20T15:13:32.685Z,100646.97
2022-10-20T15:16:45.895Z,100645.25
2022-10-20T15:19:49.005Z,100628.00
2022-10-20T15:22:54.685Z,100641.97
2022-10-20T15:26:01.734Z,100634.00
2022-10-20T15:29:08.976Z,100633.28
2022-10-20T15:32:12.552Z,100633.53
2022-10-20T15:35:19.610Z,100634.53
2022-10-20T15:38:23.161Z,100638.50
2022-10-20T15:41:28.631Z,100638.88
2022-10-20T15:44:32.033Z,100637.47
2022-10-20T15:47:34.940Z,100639.09
2022-10-20T15:50:38.621Z,100637.94
2022-10-20T15:53:41.642Z,100634.38
2022-10-20T15:56:45.082Z,100629.16
2022-10-20T15:59:48.142Z,100639.63
2022-10-20T16:02:51.880Z,100639.75
2022-10-20T16:05:55.237Z,100633.44
2022-10-20T16:08:58.167Z,100631.59
2022-10-20T16:12:02.069Z,100634.31
2022-10-20T16:15:06.798Z,100637.00
2022-10-20T16:18:10.790Z,100639.72
2022-10-20T16:21:13.871Z,100638.34
2022-10-20T16:24:17.279Z,100635.06
2022-10-20T16:27:20.231Z,100634.69
2022-10-20T16:30:23.546Z,100640.37
2022-10-20T16:33:28.284Z,100635.78
2022-10-20T16:36:31.967Z,100641.38
2022-10-20T16:39:38.052Z,100639.72
2022-10-20T16:42:46.093Z,100634.44
2022-10-20T16:45:49.039Z,100639.38
2022-10-20T16:48:52.377Z,100638.66
2022-10-20T16:51:55.734Z,100639.81
2022-10-20T16:54:59.581Z,100644.75
2022-10-20T16:58:03.584Z,100641.88
2022-10-20T17:01:13.965Z,100635.22
2022-10-20T17:04:18.002Z,100636.56
2022-10-20T17:07:21.434Z,100636.91
2022-10-20T17:10:26.430Z,100641.06
2022-10-20T17:13:30.491Z,100645.44
2022-10-20T17:16:34.711Z,100649.66
2022-10-20T17:19:41.449Z,100643.28
2022-10-20T17:22:44.900Z,100649.00
2022-10-20T17:25:49.075Z,100655.28
2022-10-20T17:28:55.123Z,100656.22
2022-10-20T17:31:59.994Z,100660.41
2022-10-20T17:35:03.467Z,100657.16
2022-10-20T17:38:07.183Z,100646.91
2022-10-20T17:41:13.503Z,100655.59
2022-10-20T17:44:17.247Z,100657.87
2022-10-20T17:47:20.448Z,100658.38
2022-10-20T17:50:25.959Z,100652.72
2022-10-20T17:53:41.277Z,100643.34
2022-10-20T17:56:45.164Z,100645.00
2022-10-20T17:59:53.493Z,100651.34
2022-10-20T18:02:59.206Z,100637.13
2022-10-20T18:06:12.105Z,100633.63
2022-10-20T18:09:17.557Z,100638.72
2022-10-20T18:12:21.623Z,100637.66
2022-10-20T18:15:25.989Z,100625.75
2022-10-20T18:18:29.850Z,100622.63
2022-10-20T18:21:33.749Z,100629.09
2022-10-20T18:24:38.316Z,100625.69
2022-10-20T18:27:42.954Z,100623.81
2022-10-20T18:30:46.495Z,100633.66
2022-10-20T18:33:53.183Z,100633.91
2022-10-20T18:36:57.080Z,100629.78
2022-10-20T18:40:02.973Z,100631.50
2022-10-20T18:43:06.713Z,100627.72
2022-10-20T18:46:10.809Z,100624.84
2022-10-20T18:49:16.766Z,100632.03
2022-10-20T18:52:20.235Z,100635.59
2022-10-20T18:55:24.238Z,100643.31
2022-10-20T18:58:30.317Z,100627.59
2022-10-20T19:01:36.494Z,100635.22
2022-10-20T19:04:40.401Z,100630.84
2022-10-20T19:07:52.513Z,100632.31
2022-10-20T19:10:56.650Z,100624.78
2022-10-20T19:14:01.086Z,100633.81
2022-10-20T19:17:05.106Z,100626.00
2022-10-20T19:20:10.431Z,100623.16
2022-10-20T19:23:14.189Z,100619.81
2022-10-20T19:26:20.110Z,100618.78
2022-10-20T19:29:25.321Z,100620.47
2022-10-20T19:32:29.183Z,100616.81
2022-10-20T19:35:33.756Z,100625.34
2022-10-20T19:38:43.760Z,100622.91
2022-10-20T19:41:48.312Z,100617.13
2022-10-20T19:44:53.153Z,100625.97
2022-10-20T19:47:56.755Z,100626.25
2022-10-20T19:51:10.267Z,100620.06
2022-10-20T19:54:15.025Z,100619.03
2022-10-20T19:57:20.181Z,100624.34
2022-10-20T20:00:23.816Z,100627.19
2022-10-20T20:03:28.005Z,100618.34
2022-10-20T20:06:34.985Z,100624.19
2022-10-20T20:09:42.281Z,100616.97
2022-10-20T20:12:45.672Z,100622.06
2022-10-20T20:15:49.690Z,100621.03
2022-10-20T20:18:53.425Z,100616.28
2022-10-20T20:21:56.907Z,100622.50
2022-10-20T20:25:00.090Z,100612.47
2022-10-20T20:28:05.298Z,100616.41
2022-10-20T20:31:11.567Z,100608.53
2022-10-20T20:34:15.793Z,100621.59
2022-10-20T20:37:18.892Z,100622.50
2022-10-20T20:40:22.234Z,100620.22
2022-10-20T20:43:25.612Z,100620.78
2022-10-20T20:46:31.292Z,100615.72
2022-10-20T20:49:33.986Z,100612.59
2022-10-20T20:52:37.490Z,100621.03
2022-10-20T20:55:40.308Z,100617.09
2022-10-20T20:58:49.108Z,100615.53
2022-10-20T21:01:51.924Z,100612.56
2022-10-20T21:04:55.712Z,100614.59
2022-10-20T21:07:58.737Z,100612.34
2022-10-20T21:11:14.244Z,100608.72
2022-10-20T21:14:17.249Z,100609.50
2022-10-20T21:17:20.514Z,100607.72
2022-10-20T21:20:23.488Z,100624.63
2022-10-20T21:23:26.972Z,100626.28
2022-10-20T21:26:30.392Z,100621.09
2022-10-20T21:29:33.759Z,100614.69
2022-10-20T21:32:36.897Z,100615.12
2022-10-20T21:35:40.802Z,100623.13
2022-10-20T21:38:44.174Z,100611.31
2022-10-20T21:41:49.113Z,100617.81
2022-10-20T21:44:52.000Z,100617.38
2022-10-20T21:47:56.167Z,100613.91
2022-10-20T21:50:59.087Z,100612.00
2022-10-20T21:54:08.304Z,100619.06
2022-10-20T21:57:11.210Z,100616.03
2022-10-20T22:00:14.867Z,100607.72
2022-10-20T22:03:17.913Z,100611.22
2022-10-20T22:06:22.925Z,100607.38
2022-10-20T22:09:26.007Z,100609.97
2022-10-20T22:12:28.860Z,100613.91
2022-10-20T22:15:37.515Z,100608.88
2022-10-20T22:18:40.409Z,100610.22
2022-10-20T22:21:47.131Z,100606.25
2022-10-20T22:24:50.004Z,100608.66
2022-10-20T22:27:53.484Z,100613.47
2022-10-20T22:30:56.435Z,100605.72
2022-10-20T22:34:00.841Z,100608.16
2022-10-20T22:37:03.748Z,100617.88
2022-10-20T22:40:08.680Z,100627.31
2022-10-20T22:43:11.562Z,100631.00
2022-10-20T22:46:16.116Z,100632.81
2022-10-20T22:49:18.866Z,100629.66
2022-10-20T22:52:21.889Z,100618.50
2022-10-20T22:55:24.706Z,100618.97
2022-10-20T22:58:27.794Z,100615.00
2022-10-20T23:01:30.627Z,100610.56
2022-10-20T23:04:33.768Z,100601.22
2022-10-20T23:07:36.998Z,100596.56
2022-10-20T23:10:40.492Z,100590.84
2022-10-20T23:13:43.602Z,100589.16
2022-10-20T23:16:46.713Z,100580.56
2022-10-20T23:19:49.843Z,100582.38
2022-10-20T23:22:52.976Z,100597.16
2022-10-20T23:25:57.564Z,100599.94
2022-10-20T23:29:03.131Z,100603.41
2022-10-20T23:32:06.279Z,100598.62
2022-10-20T23:35:09.661Z,100597.13
2022-10-20T23:38:13.031Z,100596.09
2022-10-20T23:41:16.200Z,100600.66
2022-10-20T23:44:19.394Z,100611.06
2022-10-20T23:47:22.320Z,100608.19
2022-10-20T23:50:26.875Z,100607.06
2022-10-20T23:53:30.649Z,100606.34
2022-10-20T23:56:33.739Z,100596.34
2022-10-20T23:59:37.353Z,100596.41
